Time;durP1;ratioP1;P1;durP2;ratioP2;P2;SDS_P1;SDS_P2;PMS_P1;PMS_P2;Temp;Humidity;BMP_temperature;BMP_pressure;BME280_temperature;BME280_humidity;BME280_pressure;Samples;Min_cycle;Max_cycle;Signal;HPM_P1;HPM_P2
2023/01/15 00:00:51;;;;;;;0.45;0.22;;;11.50;65.90;;;;;;5014376;28;20137;-60
2023/01/15 00:03:17;;;;;;;0.47;0.30;;;11.50;65.60;;;;;;5017458;28;20103;-60
2023/01/15 00:05:43;;;;;;;0.20;0.20;;;11.50;65.00;;;;;;5018645;28;20042;-59
2023/01/15 00:08:09;;;;;;;0.32;0.20;;;11.50;65.30;;;;;;5018055;28;20044;-61
2023/01/15 00:10:35;;;;;;;2.00;0.30;;;11.60;64.80;;;;;;5021356;28;20532;-59
2023/01/15 00:13:00;;;;;;;0.47;0.30;;;11.50;63.90;;;;;;5018210;28;20033;-58
2023/01/15 00:15:26;;;;;;;0.30;0.30;;;11.60;63.10;;;;;;5014594;28;20080;-60
2023/01/15 00:17:52;;;;;;;0.47;0.20;;;11.60;63.80;;;;;;5010784;28;20045;-61
2023/01/15 00:20:17;;;;;;;0.93;0.40;;;11.60;63.60;;;;;;5010497;28;20506;-60
2023/01/15 00:22:43;;;;;;;0.88;0.40;;;11.50;63.20;;;;;;5012402;28;21940;-60
2023/01/15 00:27:54;;;;;;;0.52;0.28;;;11.60;62.90;;;;;;5008603;28;20220;-60
2023/01/15 00:30:20;;;;;;;1.48;0.30;;;11.70;62.60;;;;;;5005527;28;20042;-59
2023/01/15 00:32:46;;;;;;;0.70;0.40;;;11.70;62.90;;;;;;5012728;28;20579;-60
2023/01/15 00:35:17;;;;;;;0.70;0.30;;;11.70;62.80;;;;;;5011983;28;20041;-61
2023/01/15 00:37:43;;;;;;;0.90;0.30;;;11.70;61.40;;;;;;5011381;28;20492;-60
2023/01/15 00:40:09;;;;;;;0.88;0.40;;;11.70;62.20;;;;;;5010580;28;20047;-61
2023/01/15 00:42:35;;;;;;;1.75;0.30;;;11.70;62.10;;;;;;5012227;28;20456;-60
2023/01/15 00:45:08;;;;;;;1.83;0.38;;;11.70;61.80;;;;;;5008673;28;20034;-61
2023/01/15 00:47:34;;;;;;;0.95;0.40;;;11.70;61.50;;;;;;5013903;28;20122;-61
2023/01/15 00:50:00;;;;;;;0.45;0.20;;;11.80;61.90;;;;;;5013768;28;20068;-61
2023/01/15 00:52:26;;;;;;;0.40;0.30;;;11.80;61.70;;;;;;5011172;28;20509;-59
2023/01/15 00:54:52;;;;;;;0.38;0.28;;;11.80;61.60;;;;;;5012355;28;20044;-60
2023/01/15 00:57:18;;;;;;;0.60;0.20;;;11.80;61.70;;;;;;5010264;28;20038;-59
2023/01/15 00:59:44;;;;;;;0.52;0.30;;;11.90;61.90;;;;;;5012874;28;20029;-59
2023/01/15 01:02:09;;;;;;;0.43;0.20;;;11.90;61.80;;;;;;5008614;28;20517;-60
2023/01/15 01:04:35;;;;;;;0.52;0.30;;;11.90;61.40;;;;;;5011219;28;20079;-61
2023/01/15 01:07:00;;;;;;;0.20;0.20;;;11.90;61.50;;;;;;5010831;28;20037;-60
2023/01/15 01:09:26;;;;;;;0.43;0.43;;;11.90;61.60;;;;;;5014091;28;20091;-61
2023/01/15 01:11:52;;;;;;;0.35;0.13;;;12.00;61.60;;;;;;5015280;28;20042;-58
2023/01/15 01:14:17;;;;;;;0.47;0.30;;;12.00;61.70;;;;;;5014351;28;20022;-59
2023/01/15 01:16:43;;;;;;;0.20;0.20;;;12.00;61.90;;;;;;5012918;28;20552;-59
2023/01/15 01:19:13;;;;;;;1.63;0.30;;;12.00;61.30;;;;;;5015497;28;20091;-61
2023/01/15 01:21:40;;;;;;;0.50;0.40;;;12.00;61.30;;;;;;5015164;28;20037;-61
2023/01/15 01:24:06;;;;;;;0.63;0.30;;;12.00;61.30;;;;;;5016336;28;20496;-61
2023/01/15 01:26:33;;;;;;;0.95;0.22;;;12.10;61.70;;;;;;5016798;28;20049;-61
2023/01/15 01:28:59;;;;;;;1.00;0.30;;;12.00;61.50;;;;;;5016393;28;20520;-59
2023/01/15 01:31:25;;;;;;;0.47;0.30;;;12.10;61.80;;;;;;5014633;28;20037;-61
2023/01/15 01:33:53;;;;;;;0.47;0.30;;;12.00;61.30;;;;;;5014078;28;20112;-59
2023/01/15 01:36:20;;;;;;;0.30;0.20;;;12.10;61.20;;;;;;5014627;28;20037;-59
2023/01/15 01:38:48;;;;;;;0.50;0.30;;;12.10;61.50;;;;;;5012871;28;20120;-60
2023/01/15 01:41:15;;;;;;;0.32;0.20;;;12.10;61.20;;;;;;5014539;28;20108;-59
2023/01/15 01:44:29;;;;;;;1.27;0.30;;;12.10;61.70;;;;;;5013524;28;20042;-60
2023/01/15 01:46:54;;;;;;;0.20;0.20;;;12.10;60.90;;;;;;5020183;28;20401;-60
2023/01/15 01:49:20;;;;;;;0.47;0.20;;;12.20;61.80;;;;;;5014309;28;20043;-59
2023/01/15 01:51:50;;;;;;;0.70;0.25;;;12.20;62.00;;;;;;5013669;28;20588;-59
2023/01/15 01:54:19;;;;;;;0.45;0.35;;;12.10;62.00;;;;;;5015794;28;20042;-59
2023/01/15 01:56:48;;;;;;;0.68;0.30;;;12.20;62.50;;;;;;5013643;28;20046;-60
2023/01/15 01:59:14;;;;;;;0.45;0.32;;;12.10;62.20;;;;;;5012793;28;20399;-59
2023/01/15 02:01:40;;;;;;;0.43;0.32;;;12.10;62.50;;;;;;5018808;28;20382;-59
2023/01/15 02:04:08;;;;;;;0.80;0.40;;;12.10;63.60;;;;;;5014580;28;20104;-60
2023/01/15 02:06:34;;;;;;;0.40;0.30;;;12.10;62.90;;;;;;5014297;28;20044;-61
2023/01/15 02:09:00;;;;;;;0.30;0.30;;;12.10;63.40;;;;;;5009701;28;20038;-61
2023/01/15 02:11:26;;;;;;;1.60;0.20;;;12.10;63.60;;;;;;5008882;28;20030;-61
2023/01/15 02:14:02;;;;;;;1.85;0.20;;;12.10;63.60;;;;;;5008812;28;20425;-61
2023/01/15 02:16:55;;;;;;;0.50;0.30;;;12.00;63.60;;;;;;5007825;28;20580;-62
2023/01/15 02:19:46;;;;;;;0.30;0.30;;;12.00;63.60;;;;;;5009375;28;20125;-60
2023/01/15 02:22:14;;;;;;;0.73;0.30;;;12.00;64.50;;;;;;5009642;28;20106;-61
2023/01/15 02:24:57;;;;;;;0.55;0.30;;;12.00;63.80;;;;;;5004910;28;20088;-59
2023/01/15 02:27:23;;;;;;;1.08;0.30;;;11.90;63.40;;;;;;5008105;28;20655;-60
2023/01/15 02:30:17;;;;;;;3.50;0.30;;;11.90;63.70;;;;;;5005656;28;20092;-60
2023/01/15 02:32:51;;;;;;;1.75;0.20;;;11.90;63.70;;;;;;5009622;28;20528;-60
2023/01/15 02:35:51;;;;;;;0.85;0.20;;;11.90;63.80;;;;;;5008682;28;20786;-60
2023/01/15 02:38:21;;;;;;;0.40;0.20;;;11.90;63.90;;;;;;4998937;28;20048;-61
2023/01/15 02:40:51;;;;;;;0.43;0.30;;;11.90;64.00;;;;;;5010495;28;20049;-61
2023/01/15 02:43:19;;;;;;;0.30;0.30;;;11.90;64.00;;;;;;5010427;28;20529;-59
2023/01/15 02:45:48;;;;;;;1.23;0.30;;;12.00;64.10;;;;;;5006696;28;20048;-60
2023/01/15 02:48:17;;;;;;;0.40;0.20;;;12.00;64.20;;;;;;5008993;28;20042;-61
2023/01/15 02:50:47;;;;;;;2.15;0.20;;;12.00;64.10;;;;;;5009118;28;20513;-59
2023/01/15 02:53:19;;;;;;;0.60;0.30;;;12.00;64.10;;;;;;5010736;28;20080;-61
2023/01/15 02:55:49;;;;;;;0.77;0.30;;;12.00;64.00;;;;;;5009241;28;20087;-59
2023/01/15 02:58:19;;;;;;;0.85;0.20;;;12.00;64.10;;;;;;5010588;28;20556;-61
2023/01/15 03:00:50;;;;;;;0.50;0.25;;;12.00;64.00;;;;;;5014312;28;20038;-59
2023/01/15 03:03:40;;;;;;;0.30;0.20;;;12.00;64.10;;;;;;5012521;28;20040;-60
2023/01/15 03:06:09;;;;;;;0.22;0.10;;;12.00;64.10;;;;;;5009309;28;20061;-62
2023/01/15 03:08:35;;;;;;;0.45;0.25;;;12.00;64.10;;;;;;5012512;28;20038;-60
2023/01/15 03:11:10;;;;;;;2.33;0.30;;;12.00;64.10;;;;;;5012850;28;20038;-61
2023/01/15 03:13:50;;;;;;;0.40;0.30;;;12.00;64.00;;;;;;5014766;28;20044;-60
2023/01/15 03:16:35;;;;;;;0.50;0.25;;;12.00;63.90;;;;;;5012990;28;20029;-59
2023/01/15 03:19:13;;;;;;;0.47;0.28;;;11.90;63.80;;;;;;5010469;28;20029;-61
2023/01/15 03:21:54;;;;;;;1.30;0.20;;;12.00;64.30;;;;;;5016240;28;20038;-61
2023/01/15 03:24:43;;;;;;;0.20;0.20;;;11.90;64.40;;;;;;5007076;28;20064;-60
2023/01/15 03:27:09;;;;;;;0.93;0.25;;;11.90;64.60;;;;;;5013227;28;20036;-59
2023/01/15 03:29:41;;;;;;;0.20;0.20;;;11.90;64.70;;;;;;5012266;28;20056;-60
2023/01/15 03:32:07;;;;;;;1.75;0.20;;;11.90;64.80;;;;;;5008467;28;20040;-60
2023/01/15 03:34:40;;;;;;;0.22;0.13;;;12.00;64.90;;;;;;5011224;28;20041;-60
2023/01/15 03:37:06;;;;;;;0.40;0.20;;;11.90;64.90;;;;;;5008057;28;20121;-60
2023/01/15 03:39:32;;;;;;;0.55;0.30;;;11.90;65.00;;;;;;5008332;28;20116;-60
2023/01/15 03:42:23;;;;;;;0.70;0.20;;;11.90;65.10;;;;;;5016598;28;20504;-59
2023/01/15 03:44:57;;;;;;;0.40;0.30;;;11.90;64.90;;;;;;5011158;28;20038;-60
2023/01/15 03:47:28;;;;;;;0.63;0.30;;;11.90;65.10;;;;;;5008583;28;20033;-60
2023/01/15 03:50:25;;;;;;;0.47;0.22;;;11.90;65.20;;;;;;5008015;28;20030;-61
2023/01/15 03:53:12;;;;;;;0.50;0.30;;;11.80;65.10;;;;;;5009074;28;20466;-60
2023/01/15 03:56:04;;;;;;;0.30;0.30;;;11.80;65.10;;;;;;5008868;28;20041;-61
2023/01/15 03:58:53;;;;;;;0.80;0.32;;;11.80;65.20;;;;;;5009051;28;20168;-60
2023/01/15 04:01:24;;;;;;;0.63;0.30;;;11.80;65.30;;;;;;5016415;28;20045;-59
2023/01/15 04:03:52;;;;;;;1.67;0.30;;;11.80;65.50;;;;;;5015989;28;20041;-60
2023/01/15 04:06:18;;;;;;;0.20;0.20;;;11.80;65.70;;;;;;5017499;28;20044;-61
2023/01/15 04:08:46;;;;;;;0.25;0.25;;;11.70;65.90;;;;;;5013582;28;20041;-60
2023/01/15 04:11:11;;;;;;;0.68;0.30;;;11.70;66.00;;;;;;5015747;28;20049;-60
2023/01/15 04:13:37;;;;;;;0.40;0.20;;;11.70;66.40;;;;;;5016360;28;21482;-61
2023/01/15 04:16:03;;;;;;;0.20;0.20;;;11.80;66.70;;;;;;5011663;28;20050;-61
2023/01/15 04:18:28;;;;;;;0.40;0.32;;;11.70;66.80;;;;;;5006228;28;20490;-60
2023/01/15 04:20:54;;;;;;;0.28;0.20;;;11.70;66.90;;;;;;5010703;28;20099;-62
2023/01/15 04:23:20;;;;;;;0.30;0.20;;;11.70;67.00;;;;;;5013806;28;20045;-61
2023/01/15 04:25:46;;;;;;;0.20;0.20;;;11.80;67.20;;;;;;5009862;28;20037;-62
2023/01/15 04:28:12;;;;;;;1.88;1.30;;;11.70;67.20;;;;;;5007606;28;20041;-59
2023/01/15 04:30:38;;;;;;;1.40;1.27;;;11.70;67.30;;;;;;5011665;28;20037;-60
2023/01/15 04:33:04;;;;;;;0.98;0.52;;;11.70;67.40;;;;;;5012246;28;20034;-59
2023/01/15 04:35:30;;;;;;;11.35;6.25;;;11.70;67.60;;;;;;5012892;28;20030;-61
2023/01/15 04:37:57;;;;;;;13.13;7.25;;;11.70;67.90;;;;;;5012600;28;20088;-60
2023/01/15 04:45:54;;;;;;;1.25;0.80;;;11.70;68.20;;;;;;5013106;28;20033;-58
2023/01/15 04:48:20;;;;;;;0.88;0.38;;;11.80;68.50;;;;;;5009355;28;20026;-60
2023/01/15 04:50:45;;;;;;;1.20;1.00;;;11.80;68.60;;;;;;5013863;28;21791;-61
2023/01/15 04:53:11;;;;;;;1.13;1.02;;;11.80;68.80;;;;;;5011932;28;20034;-60
2023/01/15 04:55:37;;;;;;;0.32;0.30;;;11.80;68.90;;;;;;5013406;28;20030;-59
2023/01/15 04:58:02;;;;;;;0.35;0.35;;;11.80;68.90;;;;;;5010209;28;20044;-60
2023/01/15 05:00:28;;;;;;;1.33;0.50;;;11.80;69.00;;;;;;5010946;28;20025;-61
2023/01/15 05:02:53;;;;;;;2.20;1.83;;;11.80;69.20;;;;;;5012719;28;20095;-59
2023/01/15 05:05:19;;;;;;;2.10;1.17;;;11.80;69.20;;;;;;5010572;28;20044;-60
2023/01/15 05:07:44;;;;;;;0.95;0.85;;;11.80;69.30;;;;;;5013137;28;20029;-56
2023/01/15 05:10:10;;;;;;;0.40;0.38;;;11.80;69.30;;;;;;5009786;28;20038;-59
2023/01/15 05:12:35;;;;;;;0.30;0.25;;;11.80;69.40;;;;;;5008534;28;20404;-59
2023/01/15 05:15:01;;;;;;;0.20;0.20;;;11.80;69.50;;;;;;5012045;28;20041;-61
2023/01/15 05:17:27;;;;;;;1.40;0.98;;;11.90;69.80;;;;;;5010609;28;20042;-60
2023/01/15 05:19:52;;;;;;;0.80;0.70;;;11.90;69.90;;;;;;5009074;28;20084;-61
2023/01/15 05:22:18;;;;;;;1.70;1.52;;;11.90;70.00;;;;;;5012852;28;20124;-60
2023/01/15 05:24:43;;;;;;;1.15;0.70;;;11.90;70.40;;;;;;5005697;28;20037;-60
2023/01/15 05:27:09;;;;;;;1.23;0.40;;;11.90;70.20;;;;;;5013719;28;20128;-60
2023/01/15 05:29:35;;;;;;;0.35;0.20;;;12.00;70.40;;;;;;5010295;28;20103;-60
2023/01/15 05:32:00;;;;;;;1.00;0.47;;;12.00;70.60;;;;;;5007422;28;20088;-60
2023/01/15 05:34:26;;;;;;;0.30;0.20;;;12.00;70.60;;;;;;5007276;28;20398;-62
2023/01/15 05:36:52;;;;;;;0.43;0.20;;;12.00;70.70;;;;;;5007268;28;20120;-60
2023/01/15 05:39:17;;;;;;;1.70;1.02;;;12.10;70.70;;;;;;5004812;28;20482;-61
2023/01/15 05:41:49;;;;;;;1.00;0.90;;;12.10;70.70;;;;;;5007403;28;20037;-61
2023/01/15 05:44:18;;;;;;;2.42;0.60;;;12.10;70.70;;;;;;5007207;28;20033;-60
2023/01/15 05:46:43;;;;;;;0.65;0.60;;;12.10;70.70;;;;;;5008335;28;20036;-60
2023/01/15 05:49:17;;;;;;;0.60;0.60;;;12.10;70.60;;;;;;5008592;28;20046;-60
2023/01/15 05:51:44;;;;;;;1.00;0.90;;;12.20;70.70;;;;;;5007023;28;20042;-60
2023/01/15 05:54:15;;;;;;;0.50;0.40;;;12.20;70.60;;;;;;5006127;28;20145;-60
2023/01/15 05:56:41;;;;;;;0.65;0.47;;;12.30;70.70;;;;;;5006292;28;20738;-60
2023/01/15 05:59:07;;;;;;;0.45;0.43;;;12.30;70.60;;;;;;5008611;28;20510;-58
2023/01/15 06:01:33;;;;;;;0.60;0.28;;;12.30;71.40;;;;;;5014619;28;20046;-61
2023/01/15 06:04:01;;;;;;;1.13;1.02;;;12.30;70.60;;;;;;5014787;28;20144;-62
2023/01/15 06:06:27;;;;;;;2.80;0.68;;;12.40;70.60;;;;;;5014220;28;20049;-60
2023/01/15 06:08:53;;;;;;;0.15;0.10;;;12.40;70.50;;;;;;5012565;28;20041;-59
2023/01/15 06:11:18;;;;;;;0.20;0.20;;;12.40;70.50;;;;;;5016836;28;20030;-62
2023/01/15 06:13:44;;;;;;;0.30;0.30;;;12.40;70.40;;;;;;5013078;28;20120;-60
2023/01/15 06:16:10;;;;;;;0.45;0.20;;;12.40;70.30;;;;;;5009160;28;20030;-60
2023/01/15 06:18:37;;;;;;;2.50;2.30;;;12.40;70.30;;;;;;5008500;28;20045;-59
2023/01/15 06:21:04;;;;;;;0.43;0.43;;;12.50;70.40;;;;;;5012143;28;20529;-61
2023/01/15 06:23:31;;;;;;;1.20;1.10;;;12.40;70.20;;;;;;5010487;28;20052;-60
2023/01/15 06:26:11;;;;;;;0.30;0.30;;;12.50;70.20;;;;;;5007423;28;20029;-60
2023/01/15 06:28:37;;;;;;;0.55;0.47;;;12.40;70.20;;;;;;5009536;28;20049;-61
2023/01/15 06:31:07;;;;;;;0.20;0.20;;;12.50;70.20;;;;;;5006552;28;20072;-60
2023/01/15 06:33:33;;;;;;;0.75;0.40;;;12.50;70.40;;;;;;5013028;28;20034;-60
2023/01/15 06:36:05;;;;;;;0.32;0.13;;;12.40;70.30;;;;;;5011838;28;20083;-60
2023/01/15 06:38:31;;;;;;;0.40;0.30;;;12.40;70.30;;;;;;5012877;28;20037;-59
2023/01/15 06:40:58;;;;;;;0.40;0.20;;;12.40;70.40;;;;;;5016571;28;20038;-62
2023/01/15 06:48:53;;;;;;;0.88;0.20;;;12.30;70.50;;;;;;5012193;28;20515;-60
2023/01/15 06:51:19;;;;;;;0.20;0.20;;;12.30;70.60;;;;;;5014407;28;20571;-61
2023/01/15 06:53:46;;;;;;;0.15;0.15;;;12.20;70.70;;;;;;5014116;28;20038;-61
2023/01/15 06:56:13;;;;;;;0.70;0.70;;;12.20;70.90;;;;;;5015635;28;20037;-61
2023/01/15 06:58:40;;;;;;;0.35;0.30;;;12.10;70.90;;;;;;5009111;28;20187;-62
2023/01/15 07:01:11;;;;;;;0.60;0.30;;;12.10;70.90;;;;;;5011537;28;20428;-60
2023/01/15 07:03:37;;;;;;;0.70;0.50;;;12.10;71.30;;;;;;5008564;28;20529;-59
2023/01/15 07:06:11;;;;;;;2.47;0.60;;;12.10;71.30;;;;;;5012283;28;20121;-60
2023/01/15 07:08:37;;;;;;;0.43;0.20;;;12.00;72.30;;;;;;5006989;28;20037;-60
2023/01/15 07:11:05;;;;;;;0.38;0.20;;;11.90;71.40;;;;;;5010128;28;20037;-61
2023/01/15 07:13:31;;;;;;;0.80;0.80;;;11.90;71.90;;;;;;5010488;28;20053;-61
2023/01/15 07:15:59;;;;;;;0.80;0.43;;;11.80;72.30;;;;;;5009821;28;20034;-61
2023/01/15 07:18:25;;;;;;;0.50;0.35;;;11.80;72.30;;;;;;5008415;28;20501;-59
2023/01/15 07:20:54;;;;;;;0.43;0.22;;;11.70;72.60;;;;;;5013668;28;20041;-61
2023/01/15 07:23:20;;;;;;;0.80;0.30;;;11.80;73.00;;;;;;4996893;28;20821;-61
2023/01/15 07:25:46;;;;;;;0.20;0.20;;;11.70;73.10;;;;;;4995151;28;20038;-59
2023/01/15 07:28:12;;;;;;;1.63;0.25;;;11.70;73.30;;;;;;4998134;28;20240;-61
2023/01/15 07:30:37;;;;;;;0.25;0.25;;;11.60;74.00;;;;;;5005754;28;20037;-60
2023/01/15 07:33:03;;;;;;;0.20;0.20;;;11.60;73.30;;;;;;5006569;28;21002;-61
2023/01/15 07:35:29;;;;;;;1.23;0.30;;;11.60;73.30;;;;;;5010236;28;20464;-60
2023/01/15 07:37:55;;;;;;;0.30;0.30;;;11.60;73.60;;;;;;5004062;28;20030;-61
2023/01/15 07:40:21;;;;;;;0.65;0.30;;;11.60;74.40;;;;;;5006608;28;20056;-61
2023/01/15 07:51:00;;;;;;;0.37;0.30;;;11.50;74.40;;;;;;5006078;28;20311;-61
2023/01/15 07:53:25;;;;;;;1.15;0.60;;;11.50;74.80;;;;;;5005010;28;20116;-60
2023/01/15 07:55:51;;;;;;;2.13;1.20;;;11.40;75.00;;;;;;5009583;28;20128;-61
2023/01/15 07:58:16;;;;;;;2.65;2.10;;;11.40;74.90;;;;;;5003669;28;20092;-61
2023/01/15 08:00:42;;;;;;;1.60;1.27;;;11.40;75.00;;;;;;5007301;28;20363;-60
2023/01/15 08:03:08;;;;;;;0.98;0.70;;;11.40;75.40;;;;;;5009520;28;20025;-62
2023/01/15 08:05:33;;;;;;;1.73;0.90;;;11.30;75.50;;;;;;5012060;28;20500;-61
2023/01/15 08:07:59;;;;;;;1.15;0.80;;;11.30;75.40;;;;;;5011324;28;20116;-62
2023/01/15 08:10:24;;;;;;;1.85;0.70;;;11.30;75.50;;;;;;5007539;28;20042;-62
2023/01/15 08:15:39;;;;;;;0.93;0.52;;;11.30;75.60;;;;;;5003058;28;20041;-60
2023/01/15 08:18:05;;;;;;;1.98;0.50;;;11.30;75.70;;;;;;5007977;28;20421;-59
2023/01/15 08:20:33;;;;;;;0.80;0.32;;;11.30;75.80;;;;;;5005939;28;20037;-61
2023/01/15 08:23:00;;;;;;;1.05;0.50;;;11.30;76.00;;;;;;5007446;28;20040;-61
2023/01/15 08:25:25;;;;;;;2.58;0.65;;;11.20;76.50;;;;;;5012886;28;20082;-60
2023/01/15 08:27:52;;;;;;;0.75;0.40;;;11.30;76.40;;;;;;5016420;28;20694;-62
2023/01/15 08:30:21;;;;;;;0.52;0.43;;;11.20;76.60;;;;;;5009349;28;20042;-62
2023/01/15 08:32:46;;;;;;;0.50;0.43;;;11.20;76.80;;;;;;5010872;28;20046;-62
2023/01/15 08:35:12;;;;;;;1.20;0.32;;;11.20;77.00;;;;;;5013771;28;20095;-60
2023/01/15 08:37:40;;;;;;;0.43;0.30;;;11.10;77.30;;;;;;5006344;28;20112;-61
2023/01/15 08:40:06;;;;;;;0.30;0.30;;;11.10;77.60;;;;;;5006924;28;20038;-61
2023/01/15 08:42:32;;;;;;;0.60;0.32;;;11.10;77.30;;;;;;5005115;28;20026;-63
2023/01/15 08:44:58;;;;;;;1.55;0.60;;;11.10;77.50;;;;;;5008747;28;20477;-62
2023/01/15 08:47:23;;;;;;;2.00;1.20;;;11.10;77.90;;;;;;5009955;28;20034;-63
2023/01/15 08:49:49;;;;;;;2.28;0.40;;;11.10;79.20;;;;;;5007867;28;20205;-64
2023/01/15 08:52:15;;;;;;;0.95;0.50;;;11.00;78.00;;;;;;5008314;28;20377;-63
2023/01/15 08:54:40;;;;;;;2.10;1.52;;;10.90;76.60;;;;;;5008760;28;20041;-63
2023/01/15 08:57:08;;;;;;;2.17;1.75;;;10.80;76.30;;;;;;5012274;28;20503;-63
2023/01/15 08:59:33;;;;;;;0.22;0.20;;;10.50;76.40;;;;;;5006549;28;20098;-62
2023/01/15 09:01:59;;;;;;;1.75;0.47;;;10.30;76.50;;;;;;5008021;28;20489;-63
2023/01/15 09:04:25;;;;;;;0.20;0.03;;;10.10;77.20;;;;;;5007898;28;20072;-63
2023/01/15 09:06:51;;;;;;;0.10;0.10;;;9.90;77.90;;;;;;5009149;28;20030;-62
2023/01/15 09:09:17;;;;;;;0.10;0.10;;;9.80;78.20;;;;;;5004389;28;20469;-61
2023/01/15 09:11:44;;;;;;;0.75;0.10;;;9.60;78.40;;;;;;5010416;28;20033;-63
2023/01/15 09:14:12;;;;;;;0.00;0.00;;;9.40;78.40;;;;;;5006232;28;20124;-63
2023/01/15 09:16:38;;;;;;;0.35;0.20;;;9.30;79.30;;;;;;5002503;28;20152;-61
2023/01/15 09:19:05;;;;;;;1.08;0.08;;;9.10;79.50;;;;;;5010296;28;20085;-61
2023/01/15 09:21:30;;;;;;;0.43;0.00;;;9.00;80.20;;;;;;5008638;28;20037;-62
2023/01/15 09:23:56;;;;;;;0.85;0.05;;;9.00;80.60;;;;;;5008584;28;20052;-63
2023/01/15 09:26:32;;;;;;;0.25;0.00;;;8.90;80.90;;;;;;5010850;28;20417;-63
2023/01/15 09:28:59;;;;;;;0.10;0.10;;;8.80;81.70;;;;;;5003159;28;21569;-63
2023/01/15 09:31:25;;;;;;;0.50;0.50;;;8.70;81.40;;;;;;5008440;28;20048;-63
2023/01/15 09:33:50;;;;;;;0.60;0.30;;;8.70;81.70;;;;;;5009783;28;20041;-62
2023/01/15 09:36:26;;;;;;;0.20;0.10;;;8.60;81.70;;;;;;5007794;28;20076;-62
2023/01/15 09:38:52;;;;;;;0.40;0.10;;;8.60;82.50;;;;;;5008376;28;20038;-62
2023/01/15 09:44:10;;;;;;;0.20;0.20;;;8.50;82.30;;;;;;5005548;28;20568;-62
2023/01/15 09:46:51;;;;;;;0.10;0.10;;;8.50;82.50;;;;;;5007291;28;20409;-63
2023/01/15 09:49:41;;;;;;;0.10;0.10;;;8.50;82.90;;;;;;5009983;28;20042;-61
2023/01/15 09:52:17;;;;;;;0.40;0.10;;;8.50;83.20;;;;;;5006125;28;20034;-62
2023/01/15 09:54:51;;;;;;;0.30;0.30;;;8.50;82.70;;;;;;5007875;28;20429;-62
2023/01/15 09:57:18;;;;;;;0.43;0.40;;;8.50;83.30;;;;;;5011816;28;20103;-63
2023/01/15 09:59:47;;;;;;;0.10;0.10;;;8.50;83.00;;;;;;5016349;28;20033;-63
2023/01/15 10:02:21;;;;;;;0.20;0.20;;;8.50;83.10;;;;;;5012978;28;20044;-63
2023/01/15 10:04:52;;;;;;;0.45;0.40;;;8.50;83.00;;;;;;5015336;28;20040;-63
2023/01/15 10:07:41;;;;;;;0.20;0.10;;;8.40;83.10;;;;;;5015309;28;20417;-63
2023/01/15 10:10:12;;;;;;;0.20;0.20;;;8.40;83.30;;;;;;5019301;28;20405;-61
2023/01/15 10:12:39;;;;;;;0.50;0.40;;;8.40;83.10;;;;;;5017324;28;20045;-63
2023/01/15 10:15:17;;;;;;;0.35;0.35;;;8.40;82.90;;;;;;5019921;28;20038;-61
2023/01/15 10:17:46;;;;;;;0.20;0.20;;;8.40;83.40;;;;;;5019152;28;20516;-62
2023/01/15 10:20:49;;;;;;;0.45;0.40;;;8.40;82.90;;;;;;5017915;28;20084;-63
2023/01/15 10:23:25;;;;;;;0.38;0.30;;;8.30;83.70;;;;;;5017700;28;20034;-63
2023/01/15 10:26:17;;;;;;;0.20;0.20;;;8.30;83.20;;;;;;5017950;28;20508;-63
2023/01/15 10:28:55;;;;;;;0.50;0.50;;;8.30;83.00;;;;;;5005468;28;20490;-62
2023/01/15 10:31:25;;;;;;;0.60;0.60;;;8.30;83.70;;;;;;5012964;28;20261;-63
2023/01/15 10:34:22;;;;;;;1.52;1.42;;;8.30;83.40;;;;;;5017403;28;20116;-62
2023/01/15 10:37:02;;;;;;;3.20;1.52;;;8.30;83.90;;;;;;5014064;28;20025;-62
2023/01/15 10:39:58;;;;;;;0.70;0.60;;;8.30;84.50;;;;;;5018726;28;20108;-62
2023/01/15 10:42:59;;;;;;;0.50;0.50;;;8.30;84.10;;;;;;5019909;28;20044;-60
2023/01/15 10:45:32;;;;;;;0.30;0.30;;;8.30;84.30;;;;;;5019022;28;20029;-61
2023/01/15 10:48:05;;;;;;;0.60;0.60;;;8.30;83.30;;;;;;5016627;28;20033;-62
2023/01/15 10:50:31;;;;;;;1.63;1.40;;;8.40;83.50;;;;;;5017722;28;20045;-62
2023/01/15 10:53:30;;;;;;;0.40;0.40;;;8.40;83.30;;;;;;5018598;28;20492;-61
2023/01/15 10:56:25;;;;;;;0.40;0.30;;;8.40;83.40;;;;;;5010714;28;20037;-61
2023/01/15 10:58:59;;;;;;;0.30;0.30;;;8.50;83.50;;;;;;5014869;28;20034;-61
2023/01/15 11:01:26;;;;;;;0.60;0.50;;;8.50;82.60;;;;;;5015099;28;20068;-62
2023/01/15 11:03:52;;;;;;;0.47;0.47;;;8.50;82.30;;;;;;5016078;28;20043;-63
2023/01/15 11:06:22;;;;;;;0.40;0.40;;;8.50;81.70;;;;;;5016802;28;20060;-62
2023/01/15 11:08:58;;;;;;;0.70;0.70;;;8.50;81.20;;;;;;5017893;28;20041;-60
2023/01/15 11:19:41;;;;;;;0.20;0.20;;;8.30;79.10;;;;;;5017700;28;20092;-60
2023/01/15 11:22:14;;;;;;;0.10;0.10;;;8.30;78.70;;;;;;5018276;28;20377;-61
2023/01/15 11:24:47;;;;;;;0.30;0.30;;;8.20;77.30;;;;;;5014214;28;20289;-62
2023/01/15 11:27:17;;;;;;;0.30;0.30;;;8.10;77.30;;;;;;5018478;28;20461;-62
2023/01/15 11:29:43;;;;;;;0.20;0.20;;;8.10;77.50;;;;;;5013020;28;20034;-63
2023/01/15 11:32:21;;;;;;;0.30;0.05;;;8.00;77.70;;;;;;5018231;28;20040;-62
2023/01/15 11:34:58;;;;;;;0.00;0.00;;;7.90;77.90;;;;;;5016070;28;20862;-62
2023/01/15 11:37:24;;;;;;;0.30;0.30;;;7.90;78.00;;;;;;5016653;28;20145;-62
2023/01/15 11:39:54;;;;;;;0.98;0.52;;;7.80;78.00;;;;;;5014932;28;20452;-60
2023/01/15 11:50:51;;;;;;;0.30;0.28;;;7.80;78.50;;;;;;5015604;28;20109;-62
2023/01/15 11:53:24;;;;;;;0.15;0.10;;;7.80;78.80;;;;;;5012787;28;20368;-63
2023/01/15 11:55:59;;;;;;;1.50;0.40;;;7.70;78.80;;;;;;5015438;28;20046;-61
2023/01/15 11:58:31;;;;;;;;;;;7.70;79.30;;;;;;5014493;28;20509;-61
2023/01/15 12:00:58;;;;;;;0.50;0.30;;;7.80;79.60;;;;;;5013409;28;19920;-62
2023/01/15 12:03:27;;;;;;;0.30;0.20;;;7.70;78.90;;;;;;5016602;28;20049;-63
2023/01/15 12:05:58;;;;;;;1.48;0.25;;;7.70;79.20;;;;;;5015660;28;20041;-62
2023/01/15 12:08:50;;;;;;;0.40;0.30;;;7.70;79.40;;;;;;5017438;28;20048;-62
2023/01/15 12:11:28;;;;;;;0.45;0.20;;;7.60;79.40;;;;;;5013889;28;20536;-62
2023/01/15 12:14:14;;;;;;;2.70;0.40;;;7.60;79.80;;;;;;5015074;28;20052;-62
2023/01/15 12:17:10;;;;;;;1.38;0.80;;;7.60;79.90;;;;;;5011103;28;20026;-63
2023/01/15 12:20:01;;;;;;;1.30;1.00;;;7.60;80.00;;;;;;5014367;28;20037;-60
2023/01/15 12:22:45;;;;;;;2.25;1.20;;;7.60;80.20;;;;;;5016804;28;20034;-61
2023/01/15 12:25:42;;;;;;;0.60;0.50;;;7.60;79.80;;;;;;5016766;28;20072;-60
2023/01/15 12:28:13;;;;;;;0.60;0.60;;;7.50;79.80;;;;;;5016000;28;20429;-62
2023/01/15 12:30:47;;;;;;;0.40;0.40;;;7.50;79.50;;;;;;5012185;28;20036;-61
2023/01/15 12:33:19;;;;;;;;;;;7.50;79.60;;;;;;5014971;28;20057;-61
2023/01/15 12:35:59;;;;;;;1.13;0.70;;;7.50;80.10;;;;;;5014845;28;19914;-63
2023/01/15 12:38:55;;;;;;;0.90;0.60;;;7.50;79.90;;;;;;5013433;28;20038;-63
2023/01/15 12:44:59;;;;;;;0.60;0.50;;;7.50;80.10;;;;;;5009851;28;20050;-62
2023/01/15 12:47:15;;;;;;;0.40;0.30;;;7.50;80.00;;;;;;5015195;28;20072;-62
2023/01/15 12:49:58;;;;;;;1.25;0.73;;;7.40;79.80;;;;;;5012278;28;20540;-62
2023/01/15 12:52:30;;;;;;;0.30;0.30;;;7.40;80.00;;;;;;5013854;28;20517;-63
2023/01/15 12:55:08;;;;;;;0.25;0.25;;;7.30;79.80;;;;;;5013421;28;20527;-62
2023/01/15 12:57:39;;;;;;;0.20;0.20;;;7.30;79.60;;;;;;5011770;28;20049;-62
2023/01/15 13:00:12;;;;;;;0.73;0.50;;;7.20;79.40;;;;;;5012131;28;20062;-63
2023/01/15 13:02:58;;;;;;;0.50;0.40;;;7.00;79.70;;;;;;5021614;28;20061;-62
2023/01/15 13:05:32;;;;;;;0.10;0.10;;;6.90;80.20;;;;;;5016633;28;20059;-62
2023/01/15 13:08:36;;;;;;;0.20;0.20;;;6.70;80.20;;;;;;5015694;28;20606;-62
2023/01/15 13:11:02;;;;;;;0.20;0.10;;;6.60;80.40;;;;;;4994179;28;20034;-62
2023/01/15 13:13:38;;;;;;;0.40;0.20;;;6.40;80.90;;;;;;5007920;28;20034;-62
2023/01/15 13:16:21;;;;;;;0.35;0.20;;;6.30;81.40;;;;;;5015440;28;20034;-62
2023/01/15 13:19:26;;;;;;;0.73;0.30;;;6.10;81.80;;;;;;5015732;28;20036;-61
2023/01/15 13:21:56;;;;;;;0.60;0.60;;;6.00;82.60;;;;;;5014388;28;20085;-62
2023/01/15 13:24:25;;;;;;;2.35;1.30;;;5.90;82.50;;;;;;5013620;28;20112;-61
2023/01/15 13:27:09;;;;;;;0.70;0.70;;;5.80;83.00;;;;;;5016209;28;20034;-63
2023/01/15 13:29:42;;;;;;;0.38;0.28;;;5.80;83.70;;;;;;5014054;28;20060;-64
2023/01/15 13:32:48;;;;;;;0.30;0.30;;;5.70;83.70;;;;;;5009234;28;20124;-63
2023/01/15 13:35:40;;;;;;;0.30;0.25;;;5.60;84.60;;;;;;4997361;28;20030;-62
2023/01/15 13:38:15;;;;;;;0.20;0.20;;;5.60;84.20;;;;;;5010221;28;20596;-63
2023/01/15 13:40:49;;;;;;;0.40;0.30;;;5.60;83.90;;;;;;5013417;28;20083;-62
2023/01/15 13:43:28;;;;;;;0.13;0.10;;;5.60;83.80;;;;;;5014575;28;20141;-64
2023/01/15 13:45:55;;;;;;;0.70;0.50;;;5.60;84.60;;;;;;5012103;28;20112;-63
2023/01/15 13:48:34;;;;;;;1.92;1.80;;;5.60;84.50;;;;;;5014085;28;20458;-64
2023/01/15 13:51:03;;;;;;;0.55;0.55;;;5.60;84.30;;;;;;5015038;28;20037;-63
2023/01/15 13:53:37;;;;;;;0.20;0.20;;;5.60;84.40;;;;;;5015001;28;20513;-63
2023/01/15 13:56:09;;;;;;;0.52;0.52;;;5.60;84.20;;;;;;5012692;28;20042;-63
2023/01/15 13:58:39;;;;;;;1.63;1.40;;;5.60;84.00;;;;;;5012533;28;21203;-62